sensor_id;sensor_type;location;lat;lon;timestamp;P1;durP1;ratioP1;P2;durP2;ratioP2
40433;SDS011;26146;51.114;5.654;2022-07-10T00:03:06;8.07;;;1.88;;
40433;SDS011;26146;51.114;5.654;2022-07-10T00:07:10;7.90;;;1.73;;
40433;SDS011;26146;51.114;5.654;2022-07-10T00:11:10;8.65;;;2.40;;
40433;SDS011;26146;51.114;5.654;2022-07-10T00:15:12;7.30;;;2.50;;
40433;SDS011;26146;51.114;5.654;2022-07-10T00:19:13;8.45;;;2.60;;
40433;SDS011;26146;51.114;5.654;2022-07-10T00:23:14;10.25;;;2.13;;
40433;SDS011;26146;51.114;5.654;2022-07-10T00:27:15;9.52;;;2.38;;
40433;SDS011;26146;51.114;5.654;2022-07-10T00:31:19;7.32;;;2.40;;
40433;SDS011;26146;51.114;5.654;2022-07-10T00:35:20;9.57;;;2.40;;
40433;SDS011;26146;51.114;5.654;2022-07-10T00:39:21;7.40;;;2.10;;
40433;SDS011;26146;51.114;5.654;2022-07-10T00:43:22;6.82;;;2.00;;
40433;SDS011;26146;51.114;5.654;2022-07-10T00:47:23;6.93;;;2.10;;
40433;SDS011;26146;51.114;5.654;2022-07-10T00:51:25;7.38;;;2.00;;
40433;SDS011;26146;51.114;5.654;2022-07-10T00:55:26;8.73;;;1.88;;
40433;SDS011;26146;51.114;5.654;2022-07-10T00:59:27;7.40;;;1.88;;
40433;SDS011;26146;51.114;5.654;2022-07-10T01:03:28;6.85;;;1.80;;
40433;SDS011;26146;51.114;5.654;2022-07-10T01:07:29;7.80;;;2.00;;
40433;SDS011;26146;51.114;5.654;2022-07-10T01:11:31;6.95;;;1.65;;
40433;SDS011;26146;51.114;5.654;2022-07-10T01:15:34;6.65;;;1.90;;
40433;SDS011;26146;51.114;5.654;2022-07-10T01:19:36;7.57;;;1.83;;
40433;SDS011;26146;51.114;5.654;2022-07-10T01:23:37;7.25;;;1.90;;
40433;SDS011;26146;51.114;5.654;2022-07-10T01:27:38;7.63;;;1.92;;
40433;SDS011;26146;51.114;5.654;2022-07-10T01:31:39;8.25;;;1.88;;
40433;SDS011;26146;51.114;5.654;2022-07-10T01:35:40;10.10;;;2.10;;
40433;SDS011;26146;51.114;5.654;2022-07-10T01:39:41;5.47;;;1.60;;
40433;SDS011;26146;51.114;5.654;2022-07-10T01:43:42;5.50;;;1.52;;
40433;SDS011;26146;51.114;5.654;2022-07-10T01:47:45;7.20;;;1.52;;
40433;SDS011;26146;51.114;5.654;2022-07-10T01:51:46;8.35;;;1.60;;
40433;SDS011;26146;51.114;5.654;2022-07-10T01:55:47;9.82;;;1.77;;
40433;SDS011;26146;51.114;5.654;2022-07-10T01:59:48;6.32;;;1.67;;
40433;SDS011;26146;51.114;5.654;2022-07-10T02:03:49;6.40;;;1.50;;
40433;SDS011;26146;51.114;5.654;2022-07-10T02:08:08;6.90;;;1.40;;
40433;SDS011;26146;51.114;5.654;2022-07-10T02:12:10;7.68;;;1.67;;
40433;SDS011;26146;51.114;5.654;2022-07-10T02:16:14;7.35;;;1.60;;
40433;SDS011;26146;51.114;5.654;2022-07-10T02:20:15;6.85;;;1.70;;
40433;SDS011;26146;51.114;5.654;2022-07-10T02:24:19;7.57;;;1.83;;
40433;SDS011;26146;51.114;5.654;2022-07-10T02:28:20;8.00;;;1.60;;
40433;SDS011;26146;51.114;5.654;2022-07-10T02:32:21;6.72;;;1.70;;
40433;SDS011;26146;51.114;5.654;2022-07-10T02:36:22;8.20;;;1.92;;
40433;SDS011;26146;51.114;5.654;2022-07-10T02:40:23;8.70;;;1.80;;
40433;SDS011;26146;51.114;5.654;2022-07-10T02:44:24;6.35;;;1.60;;
40433;SDS011;26146;51.114;5.654;2022-07-10T02:48:25;7.07;;;1.70;;
40433;SDS011;26146;51.114;5.654;2022-07-10T02:52:26;7.93;;;1.80;;
40433;SDS011;26146;51.114;5.654;2022-07-10T02:56:26;6.45;;;1.42;;
40433;SDS011;26146;51.114;5.654;2022-07-10T03:00:27;6.85;;;1.55;;
40433;SDS011;26146;51.114;5.654;2022-07-10T03:04:28;6.75;;;1.65;;
40433;SDS011;26146;51.114;5.654;2022-07-10T03:08:29;6.90;;;1.60;;
40433;SDS011;26146;51.114;5.654;2022-07-10T03:12:30;6.78;;;1.70;;
40433;SDS011;26146;51.114;5.654;2022-07-10T03:16:31;8.15;;;1.75;;
40433;SDS011;26146;51.114;5.654;2022-07-10T03:20:35;9.77;;;1.80;;
40433;SDS011;26146;51.114;5.654;2022-07-10T03:24:35;8.40;;;1.88;;
40433;SDS011;26146;51.114;5.654;2022-07-10T03:28:36;7.93;;;1.73;;
40433;SDS011;26146;51.114;5.654;2022-07-10T03:32:37;10.18;;;1.88;;
40433;SDS011;26146;51.114;5.654;2022-07-10T03:36:38;8.70;;;1.92;;
40433;SDS011;26146;51.114;5.654;2022-07-10T03:40:39;9.18;;;1.60;;
40433;SDS011;26146;51.114;5.654;2022-07-10T03:44:40;7.80;;;1.60;;
40433;SDS011;26146;51.114;5.654;2022-07-10T03:48:41;7.72;;;1.65;;
40433;SDS011;26146;51.114;5.654;2022-07-10T03:52:42;7.75;;;1.67;;
40433;SDS011;26146;51.114;5.654;2022-07-10T03:56:44;7.90;;;1.67;;
40433;SDS011;26146;51.114;5.654;2022-07-10T04:01:06;7.25;;;1.50;;
40433;SDS011;26146;51.114;5.654;2022-07-10T04:05:07;6.10;;;1.50;;
40433;SDS011;26146;51.114;5.654;2022-07-10T04:09:09;7.18;;;1.55;;
40433;SDS011;26146;51.114;5.654;2022-07-10T04:13:10;8.18;;;1.70;;
40433;SDS011;26146;51.114;5.654;2022-07-10T04:17:11;7.82;;;1.70;;
40433;SDS011;26146;51.114;5.654;2022-07-10T04:21:12;8.30;;;2.00;;
40433;SDS011;26146;51.114;5.654;2022-07-10T04:25:13;8.90;;;2.40;;
40433;SDS011;26146;51.114;5.654;2022-07-10T04:29:14;7.25;;;1.60;;
40433;SDS011;26146;51.114;5.654;2022-07-10T04:33:17;8.52;;;1.90;;
40433;SDS011;26146;51.114;5.654;2022-07-10T04:37:18;7.22;;;1.73;;
40433;SDS011;26146;51.114;5.654;2022-07-10T04:41:19;9.35;;;2.00;;
40433;SDS011;26146;51.114;5.654;2022-07-10T04:45:20;11.45;;;1.73;;
40433;SDS011;26146;51.114;5.654;2022-07-10T04:49:21;8.95;;;1.80;;
40433;SDS011;26146;51.114;5.654;2022-07-10T04:53:24;6.55;;;1.88;;
40433;SDS011;26146;51.114;5.654;2022-07-10T04:57:25;9.15;;;2.03;;
40433;SDS011;26146;51.114;5.654;2022-07-10T05:01:26;7.47;;;1.70;;
40433;SDS011;26146;51.114;5.654;2022-07-10T05:05:27;9.70;;;2.53;;
40433;SDS011;26146;51.114;5.654;2022-07-10T05:09:28;10.30;;;1.83;;
40433;SDS011;26146;51.114;5.654;2022-07-10T05:13:29;9.27;;;1.70;;
40433;SDS011;26146;51.114;5.654;2022-07-10T05:17:30;6.65;;;1.88;;
40433;SDS011;26146;51.114;5.654;2022-07-10T05:21:32;8.90;;;1.88;;
40433;SDS011;26146;51.114;5.654;2022-07-10T05:25:33;5.28;;;1.38;;
40433;SDS011;26146;51.114;5.654;2022-07-10T05:29:36;10.15;;;1.63;;
40433;SDS011;26146;51.114;5.654;2022-07-10T05:33:37;6.43;;;1.58;;
40433;SDS011;26146;51.114;5.654;2022-07-10T05:37:40;7.72;;;1.38;;
40433;SDS011;26146;51.114;5.654;2022-07-10T05:41:41;9.00;;;1.80;;
40433;SDS011;26146;51.114;5.654;2022-07-10T05:45:42;6.00;;;1.27;;
40433;SDS011;26146;51.114;5.654;2022-07-10T05:49:43;7.57;;;1.70;;
40433;SDS011;26146;51.114;5.654;2022-07-10T05:53:44;8.05;;;1.95;;
40433;SDS011;26146;51.114;5.654;2022-07-10T05:57:47;8.43;;;1.88;;
40433;SDS011;26146;51.114;5.654;2022-07-10T06:01:48;7.40;;;1.80;;
40433;SDS011;26146;51.114;5.654;2022-07-10T06:05:49;7.05;;;1.70;;
40433;SDS011;26146;51.114;5.654;2022-07-10T06:09:50;9.02;;;1.67;;
40433;SDS011;26146;51.114;5.654;2022-07-10T06:13:51;7.43;;;1.30;;
40433;SDS011;26146;51.114;5.654;2022-07-10T06:17:54;9.57;;;1.40;;
40433;SDS011;26146;51.114;5.654;2022-07-10T06:21:57;6.25;;;1.25;;
40433;SDS011;26146;51.114;5.654;2022-07-10T06:26:16;8.00;;;1.40;;
40433;SDS011;26146;51.114;5.654;2022-07-10T06:30:17;5.68;;;1.33;;
40433;SDS011;26146;51.114;5.654;2022-07-10T06:34:20;5.68;;;1.20;;
40433;SDS011;26146;51.114;5.654;2022-07-10T06:38:21;6.25;;;1.33;;
40433;SDS011;26146;51.114;5.654;2022-07-10T06:42:22;8.18;;;1.38;;
40433;SDS011;26146;51.114;5.654;2022-07-10T06:46:23;8.45;;;1.40;;
40433;SDS011;26146;51.114;5.654;2022-07-10T06:50:26;8.18;;;1.10;;
40433;SDS011;26146;51.114;5.654;2022-07-10T06:54:34;7.43;;;1.20;;
40433;SDS011;26146;51.114;5.654;2022-07-10T06:58:35;10.55;;;1.40;;
40433;SDS011;26146;51.114;5.654;2022-07-10T07:02:37;8.88;;;1.10;;
40433;SDS011;26146;51.114;5.654;2022-07-10T07:06:38;6.63;;;0.98;;
40433;SDS011;26146;51.114;5.654;2022-07-10T07:10:39;6.05;;;1.08;;
40433;SDS011;26146;51.114;5.654;2022-07-10T07:14:42;4.97;;;0.90;;
40433;SDS011;26146;51.114;5.654;2022-07-10T07:18:43;5.88;;;1.02;;
40433;SDS011;26146;51.114;5.654;2022-07-10T07:22:52;7.20;;;0.90;;
40433;SDS011;26146;51.114;5.654;2022-07-10T07:27:11;6.95;;;1.05;;
40433;SDS011;26146;51.114;5.654;2022-07-10T07:31:12;6.80;;;0.90;;
40433;SDS011;26146;51.114;5.654;2022-07-10T07:35:14;7.78;;;0.93;;
40433;SDS011;26146;51.114;5.654;2022-07-10T07:39:16;6.68;;;1.20;;
40433;SDS011;26146;51.114;5.654;2022-07-10T07:43:17;7.40;;;0.88;;
40433;SDS011;26146;51.114;5.654;2022-07-10T07:47:18;6.22;;;0.80;;
40433;SDS011;26146;51.114;5.654;2022-07-10T07:51:19;6.38;;;0.85;;
40433;SDS011;26146;51.114;5.654;2022-07-10T07:55:20;6.38;;;0.80;;
40433;SDS011;26146;51.114;5.654;2022-07-10T07:59:24;6.93;;;1.00;;
40433;SDS011;26146;51.114;5.654;2022-07-10T08:03:25;8.35;;;1.10;;
40433;SDS011;26146;51.114;5.654;2022-07-10T08:07:43;6.60;;;0.95;;
40433;SDS011;26146;51.114;5.654;2022-07-10T08:11:46;5.35;;;0.90;;
40433;SDS011;26146;51.114;5.654;2022-07-10T08:15:48;6.45;;;1.10;;
40433;SDS011;26146;51.114;5.654;2022-07-10T08:19:49;9.10;;;1.13;;
40433;SDS011;26146;51.114;5.654;2022-07-10T08:23:50;8.68;;;1.38;;
40433;SDS011;26146;51.114;5.654;2022-07-10T08:27:53;5.90;;;1.10;;
40433;SDS011;26146;51.114;5.654;2022-07-10T08:31:54;8.38;;;1.58;;
40433;SDS011;26146;51.114;5.654;2022-07-10T08:35:55;6.15;;;1.10;;
40433;SDS011;26146;51.114;5.654;2022-07-10T08:40:00;7.60;;;1.00;;
40433;SDS011;26146;51.114;5.654;2022-07-10T08:44:01;7.53;;;1.40;;
40433;SDS011;26146;51.114;5.654;2022-07-10T08:48:03;7.53;;;1.13;;
40433;SDS011;26146;51.114;5.654;2022-07-10T08:52:08;5.47;;;1.10;;
40433;SDS011;26146;51.114;5.654;2022-07-10T08:56:21;6.82;;;0.82;;
40433;SDS011;26146;51.114;5.654;2022-07-10T09:00:22;8.30;;;1.40;;
40433;SDS011;26146;51.114;5.654;2022-07-10T09:04:25;5.63;;;0.82;;
40433;SDS011;26146;51.114;5.654;2022-07-10T09:08:27;7.28;;;1.00;;
40433;SDS011;26146;51.114;5.654;2022-07-10T09:12:48;7.45;;;1.25;;
40433;SDS011;26146;51.114;5.654;2022-07-10T09:16:54;5.22;;;1.00;;
40433;SDS011;26146;51.114;5.654;2022-07-10T09:20:55;6.38;;;1.10;;
40433;SDS011;26146;51.114;5.654;2022-07-10T09:24:56;5.95;;;1.20;;
40433;SDS011;26146;51.114;5.654;2022-07-10T09:29:12;6.68;;;1.10;;
40433;SDS011;26146;51.114;5.654;2022-07-10T09:33:16;6.97;;;1.42;;
40433;SDS011;26146;51.114;5.654;2022-07-10T09:37:34;8.35;;;1.23;;
40433;SDS011;26146;51.114;5.654;2022-07-10T09:45:42;6.53;;;1.00;;
40433;SDS011;26146;51.114;5.654;2022-07-10T09:49:43;7.55;;;1.27;;
40433;SDS011;26146;51.114;5.654;2022-07-10T09:53:44;8.43;;;1.40;;
40433;SDS011;26146;51.114;5.654;2022-07-10T09:57:45;6.43;;;1.10;;
40433;SDS011;26146;51.114;5.654;2022-07-10T10:01:55;6.00;;;1.00;;
40433;SDS011;26146;51.114;5.654;2022-07-10T10:06:14;5.38;;;1.02;;
40433;SDS011;26146;51.114;5.654;2022-07-10T10:10:16;7.88;;;1.35;;
40433;SDS011;26146;51.114;5.654;2022-07-10T10:14:18;6.00;;;1.08;;
40433;SDS011;26146;51.114;5.654;2022-07-10T10:18:22;8.38;;;1.30;;
40433;SDS011;26146;51.114;5.654;2022-07-10T10:22:24;8.18;;;1.20;;
40433;SDS011;26146;51.114;5.654;2022-07-10T10:26:26;6.13;;;1.40;;
40433;SDS011;26146;51.114;5.654;2022-07-10T10:30:29;5.57;;;1.20;;
40433;SDS011;26146;51.114;5.654;2022-07-10T10:34:39;7.07;;;1.15;;
40433;SDS011;26146;51.114;5.654;2022-07-10T10:42:48;6.35;;;1.30;;
40433;SDS011;26146;51.114;5.654;2022-07-10T10:47:04;7.82;;;1.42;;
40433;SDS011;26146;51.114;5.654;2022-07-10T10:51:06;6.38;;;1.33;;
40433;SDS011;26146;51.114;5.654;2022-07-10T10:55:07;5.25;;;1.20;;
40433;SDS011;26146;51.114;5.654;2022-07-10T10:59:08;7.50;;;1.30;;
40433;SDS011;26146;51.114;5.654;2022-07-10T11:12:00;8.32;;;1.40;;
40433;SDS011;26146;51.114;5.654;2022-07-10T11:16:11;6.07;;;1.40;;
40433;SDS011;26146;51.114;5.654;2022-07-10T11:20:13;6.82;;;1.50;;
40433;SDS011;26146;51.114;5.654;2022-07-10T11:24:18;6.75;;;1.50;;
40433;SDS011;26146;51.114;5.654;2022-07-10T11:28:46;6.30;;;1.60;;
40433;SDS011;26146;51.114;5.654;2022-07-10T11:32:51;5.95;;;1.50;;
40433;SDS011;26146;51.114;5.654;2022-07-10T11:36:52;6.90;;;1.60;;
40433;SDS011;26146;51.114;5.654;2022-07-10T11:40:53;8.35;;;1.70;;
40433;SDS011;26146;51.114;5.654;2022-07-10T11:44:55;5.93;;;1.30;;
40433;SDS011;26146;51.114;5.654;2022-07-10T11:48:56;7.30;;;1.58;;
40433;SDS011;26146;51.114;5.654;2022-07-10T11:52:57;7.35;;;1.70;;
40433;SDS011;26146;51.114;5.654;2022-07-10T11:57:04;8.02;;;1.60;;
40433;SDS011;26146;51.114;5.654;2022-07-10T12:01:07;6.65;;;1.60;;
40433;SDS011;26146;51.114;5.654;2022-07-10T12:09:36;7.97;;;1.60;;
40433;SDS011;26146;51.114;5.654;2022-07-10T12:13:39;6.53;;;1.50;;
40433;SDS011;26146;51.114;5.654;2022-07-10T12:17:50;5.75;;;1.42;;
40433;SDS011;26146;51.114;5.654;2022-07-10T12:21:53;4.93;;;1.40;;
40433;SDS011;26146;51.114;5.654;2022-07-10T12:25:55;6.63;;;1.10;;
40433;SDS011;26146;51.114;5.654;2022-07-10T12:30:00;5.72;;;1.20;;
40433;SDS011;26146;51.114;5.654;2022-07-10T12:38:03;7.05;;;1.40;;
40433;SDS011;26146;51.114;5.654;2022-07-10T12:42:05;5.82;;;1.30;;
40433;SDS011;26146;51.114;5.654;2022-07-10T12:46:10;5.90;;;1.33;;
40433;SDS011;26146;51.114;5.654;2022-07-10T12:50:12;6.10;;;1.30;;
40433;SDS011;26146;51.114;5.654;2022-07-10T12:54:33;6.55;;;1.13;;
40433;SDS011;26146;51.114;5.654;2022-07-10T12:58:35;5.45;;;1.08;;
40433;SDS011;26146;51.114;5.654;2022-07-10T13:02:36;6.97;;;1.20;;
40433;SDS011;26146;51.114;5.654;2022-07-10T13:06:37;7.90;;;1.10;;
40433;SDS011;26146;51.114;5.654;2022-07-10T13:10:41;7.10;;;1.10;;
40433;SDS011;26146;51.114;5.654;2022-07-10T13:14:43;6.63;;;1.10;;
40433;SDS011;26146;51.114;5.654;2022-07-10T13:18:44;4.97;;;1.10;;
40433;SDS011;26146;51.114;5.654;2022-07-10T13:22:45;3.60;;;0.80;;
40433;SDS011;26146;51.114;5.654;2022-07-10T13:26:46;4.63;;;0.80;;
40433;SDS011;26146;51.114;5.654;2022-07-10T13:30:47;4.93;;;1.05;;
40433;SDS011;26146;51.114;5.654;2022-07-10T13:34:48;5.97;;;1.00;;
40433;SDS011;26146;51.114;5.654;2022-07-10T13:38:49;6.57;;;1.00;;
40433;SDS011;26146;51.114;5.654;2022-07-10T13:42:52;5.78;;;1.10;;
40433;SDS011;26146;51.114;5.654;2022-07-10T13:46:53;3.13;;;0.70;;
40433;SDS011;26146;51.114;5.654;2022-07-10T13:50:54;4.72;;;1.02;;
40433;SDS011;26146;51.114;5.654;2022-07-10T13:54:55;6.13;;;1.00;;
40433;SDS011;26146;51.114;5.654;2022-07-10T13:58:56;3.95;;;0.73;;
40433;SDS011;26146;51.114;5.654;2022-07-10T14:02:57;4.30;;;0.90;;
40433;SDS011;26146;51.114;5.654;2022-07-10T14:07:00;7.15;;;0.80;;
40433;SDS011;26146;51.114;5.654;2022-07-10T14:11:01;6.72;;;0.95;;
40433;SDS011;26146;51.114;5.654;2022-07-10T14:15:05;4.55;;;0.93;;
40433;SDS011;26146;51.114;5.654;2022-07-10T14:19:09;3.63;;;0.80;;
40433;SDS011;26146;51.114;5.654;2022-07-10T14:23:10;4.55;;;0.80;;
40433;SDS011;26146;51.114;5.654;2022-07-10T14:27:11;4.80;;;0.85;;
40433;SDS011;26146;51.114;5.654;2022-07-10T14:31:12;5.50;;;0.82;;
40433;SDS011;26146;51.114;5.654;2022-07-10T14:35:13;3.28;;;0.65;;
40433;SDS011;26146;51.114;5.654;2022-07-10T14:39:14;4.20;;;0.80;;
40433;SDS011;26146;51.114;5.654;2022-07-10T14:43:15;5.65;;;0.90;;
40433;SDS011;26146;51.114;5.654;2022-07-10T14:47:16;3.78;;;0.70;;
40433;SDS011;26146;51.114;5.654;2022-07-10T14:51:17;4.18;;;0.77;;
40433;SDS011;26146;51.114;5.654;2022-07-10T14:55:18;4.03;;;0.70;;
40433;SDS011;26146;51.114;5.654;2022-07-10T14:59:19;3.33;;;0.50;;
40433;SDS011;26146;51.114;5.654;2022-07-10T15:03:19;4.78;;;0.85;;
40433;SDS011;26146;51.114;5.654;2022-07-10T15:07:20;3.78;;;0.77;;
40433;SDS011;26146;51.114;5.654;2022-07-10T15:11:21;3.35;;;0.80;;
40433;SDS011;26146;51.114;5.654;2022-07-10T15:15:23;4.45;;;0.80;;
40433;SDS011;26146;51.114;5.654;2022-07-10T15:19:23;3.63;;;0.70;;
40433;SDS011;26146;51.114;5.654;2022-07-10T15:23:24;3.80;;;0.80;;
40433;SDS011;26146;51.114;5.654;2022-07-10T15:27:28;5.78;;;0.70;;
40433;SDS011;26146;51.114;5.654;2022-07-10T15:31:31;6.20;;;1.08;;
40433;SDS011;26146;51.114;5.654;2022-07-10T15:35:32;4.90;;;0.80;;
40433;SDS011;26146;51.114;5.654;2022-07-10T15:39:33;5.22;;;0.93;;
40433;SDS011;26146;51.114;5.654;2022-07-10T15:43:41;7.43;;;0.90;;
40433;SDS011;26146;51.114;5.654;2022-07-10T15:47:43;4.47;;;0.80;;
40433;SDS011;26146;51.114;5.654;2022-07-10T15:51:44;4.47;;;0.85;;
40433;SDS011;26146;51.114;5.654;2022-07-10T15:55:44;4.00;;;0.80;;
40433;SDS011;26146;51.114;5.654;2022-07-10T15:59:48;5.32;;;0.80;;
40433;SDS011;26146;51.114;5.654;2022-07-10T16:03:49;4.80;;;0.95;;
40433;SDS011;26146;51.114;5.654;2022-07-10T16:07:50;6.30;;;1.08;;
40433;SDS011;26146;51.114;5.654;2022-07-10T16:11:52;4.18;;;1.00;;
40433;SDS011;26146;51.114;5.654;2022-07-10T16:15:53;4.32;;;1.00;;
40433;SDS011;26146;51.114;5.654;2022-07-10T16:19:54;6.72;;;0.95;;
40433;SDS011;26146;51.114;5.654;2022-07-10T16:23:55;4.70;;;0.90;;
40433;SDS011;26146;51.114;5.654;2022-07-10T16:27:57;5.00;;;1.02;;
40433;SDS011;26146;51.114;5.654;2022-07-10T16:31:58;5.93;;;1.08;;
40433;SDS011;26146;51.114;5.654;2022-07-10T16:35:59;6.07;;;1.00;;
40433;SDS011;26146;51.114;5.654;2022-07-10T16:40:03;5.35;;;1.00;;
40433;SDS011;26146;51.114;5.654;2022-07-10T16:44:06;4.05;;;0.80;;
40433;SDS011;26146;51.114;5.654;2022-07-10T16:48:10;4.60;;;0.80;;
40433;SDS011;26146;51.114;5.654;2022-07-10T16:52:11;6.32;;;0.88;;
40433;SDS011;26146;51.114;5.654;2022-07-10T16:56:12;7.85;;;1.20;;
40433;SDS011;26146;51.114;5.654;2022-07-10T17:00:13;5.18;;;0.90;;
40433;SDS011;26146;51.114;5.654;2022-07-10T17:04:15;5.32;;;1.20;;
40433;SDS011;26146;51.114;5.654;2022-07-10T17:08:37;7.20;;;1.67;;
40433;SDS011;26146;51.114;5.654;2022-07-10T17:12:39;5.87;;;1.23;;
40433;SDS011;26146;51.114;5.654;2022-07-10T17:16:40;5.05;;;1.10;;
40433;SDS011;26146;51.114;5.654;2022-07-10T17:20:41;7.05;;;1.45;;
40433;SDS011;26146;51.114;5.654;2022-07-10T17:24:42;4.32;;;1.00;;
40433;SDS011;26146;51.114;5.654;2022-07-10T17:28:43;4.53;;;1.10;;
40433;SDS011;26146;51.114;5.654;2022-07-10T17:32:44;5.18;;;1.30;;
40433;SDS011;26146;51.114;5.654;2022-07-10T17:36:45;4.15;;;1.00;;
40433;SDS011;26146;51.114;5.654;2022-07-10T17:40:46;4.45;;;1.00;;
40433;SDS011;26146;51.114;5.654;2022-07-10T17:44:48;7.13;;;1.10;;
40433;SDS011;26146;51.114;5.654;2022-07-10T17:48:49;5.00;;;1.20;;
40433;SDS011;26146;51.114;5.654;2022-07-10T17:52:50;4.72;;;1.00;;
40433;SDS011;26146;51.114;5.654;2022-07-10T17:56:51;5.53;;;1.02;;
40433;SDS011;26146;51.114;5.654;2022-07-10T18:00:52;6.65;;;1.17;;
40433;SDS011;26146;51.114;5.654;2022-07-10T18:04:53;3.78;;;1.00;;
40433;SDS011;26146;51.114;5.654;2022-07-10T18:08:54;5.22;;;1.17;;
40433;SDS011;26146;51.114;5.654;2022-07-10T18:12:55;4.95;;;1.02;;
40433;SDS011;26146;51.114;5.654;2022-07-10T18:16:56;4.50;;;1.10;;
40433;SDS011;26146;51.114;5.654;2022-07-10T18:20:57;4.80;;;0.95;;
40433;SDS011;26146;51.114;5.654;2022-07-10T18:25:00;3.92;;;0.93;;
40433;SDS011;26146;51.114;5.654;2022-07-10T18:29:02;3.22;;;0.82;;
40433;SDS011;26146;51.114;5.654;2022-07-10T18:33:03;6.57;;;1.25;;
40433;SDS011;26146;51.114;5.654;2022-07-10T18:37:22;4.18;;;1.00;;
40433;SDS011;26146;51.114;5.654;2022-07-10T18:41:23;5.00;;;1.00;;
40433;SDS011;26146;51.114;5.654;2022-07-10T18:45:27;4.05;;;1.00;;
40433;SDS011;26146;51.114;5.654;2022-07-10T18:49:28;4.78;;;1.00;;
40433;SDS011;26146;51.114;5.654;2022-07-10T18:53:28;4.78;;;0.90;;
40433;SDS011;26146;51.114;5.654;2022-07-10T18:57:29;3.50;;;0.90;;
40433;SDS011;26146;51.114;5.654;2022-07-10T19:01:32;5.00;;;1.00;;
40433;SDS011;26146;51.114;5.654;2022-07-10T19:05:33;5.35;;;1.25;;
40433;SDS011;26146;51.114;5.654;2022-07-10T19:09:35;4.72;;;1.20;;
40433;SDS011;26146;51.114;5.654;2022-07-10T19:13:36;5.35;;;1.20;;
40433;SDS011;26146;51.114;5.654;2022-07-10T19:17:40;3.77;;;0.87;;
40433;SDS011;26146;51.114;5.654;2022-07-10T19:21:42;5.03;;;1.20;;
40433;SDS011;26146;51.114;5.654;2022-07-10T19:25:43;4.95;;;1.10;;
40433;SDS011;26146;51.114;5.654;2022-07-10T19:29:44;6.00;;;1.17;;
40433;SDS011;26146;51.114;5.654;2022-07-10T19:33:46;5.20;;;1.30;;
40433;SDS011;26146;51.114;5.654;2022-07-10T19:37:49;5.68;;;1.10;;
40433;SDS011;26146;51.114;5.654;2022-07-10T19:41:53;4.90;;;1.20;;
40433;SDS011;26146;51.114;5.654;2022-07-10T19:45:54;5.55;;;1.27;;
40433;SDS011;26146;51.114;5.654;2022-07-10T19:49:55;6.25;;;1.13;;
40433;SDS011;26146;51.114;5.654;2022-07-10T19:53:56;5.07;;;1.20;;
40433;SDS011;26146;51.114;5.654;2022-07-10T19:57:57;6.57;;;1.52;;
40433;SDS011;26146;51.114;5.654;2022-07-10T20:01:58;5.15;;;1.10;;
40433;SDS011;26146;51.114;5.654;2022-07-10T20:05:59;5.93;;;1.20;;
40433;SDS011;26146;51.114;5.654;2022-07-10T20:10:00;5.75;;;1.30;;
40433;SDS011;26146;51.114;5.654;2022-07-10T20:14:01;6.72;;;1.70;;
40433;SDS011;26146;51.114;5.654;2022-07-10T20:18:03;6.35;;;1.60;;
40433;SDS011;26146;51.114;5.654;2022-07-10T20:22:06;5.72;;;1.33;;
40433;SDS011;26146;51.114;5.654;2022-07-10T20:26:07;6.55;;;1.60;;
40433;SDS011;26146;51.114;5.654;2022-07-10T20:30:09;5.82;;;1.83;;
40433;SDS011;26146;51.114;5.654;2022-07-10T20:34:11;6.97;;;1.92;;
40433;SDS011;26146;51.114;5.654;2022-07-10T20:38:12;7.05;;;1.70;;
40433;SDS011;26146;51.114;5.654;2022-07-10T20:42:13;7.45;;;1.73;;
40433;SDS011;26146;51.114;5.654;2022-07-10T20:46:14;5.25;;;1.50;;
40433;SDS011;26146;51.114;5.654;2022-07-10T20:50:15;7.15;;;1.52;;
40433;SDS011;26146;51.114;5.654;2022-07-10T20:54:17;6.47;;;1.55;;
40433;SDS011;26146;51.114;5.654;2022-07-10T20:58:18;5.95;;;1.40;;
40433;SDS011;26146;51.114;5.654;2022-07-10T21:02:19;6.57;;;1.52;;
40433;SDS011;26146;51.114;5.654;2022-07-10T21:06:21;6.82;;;1.80;;
40433;SDS011;26146;51.114;5.654;2022-07-10T21:10:22;6.10;;;1.40;;
40433;SDS011;26146;51.114;5.654;2022-07-10T21:14:43;6.30;;;1.80;;
40433;SDS011;26146;51.114;5.654;2022-07-10T21:18:46;7.60;;;1.70;;
40433;SDS011;26146;51.114;5.654;2022-07-10T21:22:47;4.68;;;1.40;;
40433;SDS011;26146;51.114;5.654;2022-07-10T21:26:48;5.15;;;1.40;;
40433;SDS011;26146;51.114;5.654;2022-07-10T21:30:49;7.80;;;2.08;;
40433;SDS011;26146;51.114;5.654;2022-07-10T21:34:50;7.88;;;2.63;;
40433;SDS011;26146;51.114;5.654;2022-07-10T21:38:51;7.43;;;2.33;;
40433;SDS011;26146;51.114;5.654;2022-07-10T21:42:52;7.30;;;2.28;;
40433;SDS011;26146;51.114;5.654;2022-07-10T21:46:53;6.57;;;1.80;;
40433;SDS011;26146;51.114;5.654;2022-07-10T21:50:54;6.20;;;2.00;;
40433;SDS011;26146;51.114;5.654;2022-07-10T21:54:55;9.00;;;1.95;;
40433;SDS011;26146;51.114;5.654;2022-07-10T21:58:56;6.60;;;2.17;;
40433;SDS011;26146;51.114;5.654;2022-07-10T22:02:57;6.43;;;1.80;;
40433;SDS011;26146;51.114;5.654;2022-07-10T22:06:58;7.88;;;1.70;;
40433;SDS011;26146;51.114;5.654;2022-07-10T22:10:59;7.72;;;3.17;;
40433;SDS011;26146;51.114;5.654;2022-07-10T22:15:00;9.20;;;2.90;;
40433;SDS011;26146;51.114;5.654;2022-07-10T22:19:01;7.38;;;2.53;;
40433;SDS011;26146;51.114;5.654;2022-07-10T22:23:02;7.43;;;1.90;;
40433;SDS011;26146;51.114;5.654;2022-07-10T22:27:02;6.13;;;1.75;;
40433;SDS011;26146;51.114;5.654;2022-07-10T22:31:06;7.60;;;2.23;;
40433;SDS011;26146;51.114;5.654;2022-07-10T22:35:24;7.25;;;2.20;;
40433;SDS011;26146;51.114;5.654;2022-07-10T22:39:25;6.45;;;1.95;;
40433;SDS011;26146;51.114;5.654;2022-07-10T22:43:26;8.10;;;1.90;;
40433;SDS011;26146;51.114;5.654;2022-07-10T22:47:27;7.07;;;2.05;;
40433;SDS011;26146;51.114;5.654;2022-07-10T22:51:28;7.25;;;1.90;;
40433;SDS011;26146;51.114;5.654;2022-07-10T22:55:29;11.65;;;2.00;;
40433;SDS011;26146;51.114;5.654;2022-07-10T22:59:30;6.53;;;2.08;;
40433;SDS011;26146;51.114;5.654;2022-07-10T23:03:31;6.38;;;2.00;;
40433;SDS011;26146;51.114;5.654;2022-07-10T23:07:32;6.75;;;2.00;;
40433;SDS011;26146;51.114;5.654;2022-07-10T23:11:33;7.55;;;2.20;;
40433;SDS011;26146;51.114;5.654;2022-07-10T23:15:34;7.45;;;2.15;;
40433;SDS011;26146;51.114;5.654;2022-07-10T23:19:35;7.30;;;2.47;;
40433;SDS011;26146;51.114;5.654;2022-07-10T23:23:36;7.43;;;2.30;;
40433;SDS011;26146;51.114;5.654;2022-07-10T23:27:37;7.50;;;2.25;;
40433;SDS011;26146;51.114;5.654;2022-07-10T23:31:38;6.25;;;2.40;;
40433;SDS011;26146;51.114;5.654;2022-07-10T23:35:39;7.28;;;2.50;;
40433;SDS011;26146;51.114;5.654;2022-07-10T23:39:40;6.60;;;2.50;;
40433;SDS011;26146;51.114;5.654;2022-07-10T23:43:41;8.18;;;2.50;;
40433;SDS011;26146;51.114;5.654;2022-07-10T23:47:43;6.72;;;2.53;;
40433;SDS011;26146;51.114;5.654;2022-07-10T23:51:44;8.95;;;2.92;;
40433;SDS011;26146;51.114;5.654;2022-07-10T23:55:48;8.93;;;3.20;;
40433;SDS011;26146;51.114;5.654;2022-07-10T23:59:49;8.65;;;2.95;;
